Terminal Aerodrome Forecast
Issued by NWS Shreveport, LA

Home | Current Version | Previous Version | Text Only | Print | Product List | Glossary On
Versions: 1 2 3 4 5 6 7 8 9 10 11 12 13 14 15 16 17
000
FTUS44 KSHV 251140
TAFLFK
TAF
KLFK 251140Z 2512/2612 VRB03KT P6SM BKN130
     FM251400 VRB03KT P6SM SCT010 BKN130
     FM251600 VRB04KT P6SM SCT025 BKN150
     FM251800 06006KT P6SM VCTS BKN035CB
     FM260100 12003KT P6SM FEW050 BKN130 BKN250=

USA.gov is the U.S. government's official web portal to all federal, state and local government web resources and services.